Time;durP1;ratioP1;P1;durP2;ratioP2;P2;SDS_P1;SDS_P2;PMS_P1;PMS_P2;Temp;Humidity;BMP_temperature;BMP_pressure;BME280_temperature;BME280_humidity;BME280_pressure;Samples;Min_cycle;Max_cycle;Signal;HPM_P1;HPM_P2
2022/01/30 00:00:01;;;;;;;23.80;5.20;;;;;;;;;;4922173;29;20029;-78
2022/01/30 00:06:47;;;;;;;33.63;5.20;;;;;;;;;;4929256;29;20068;-78
2022/01/30 00:10:27;;;;;;;;;;;;;;;;;;;;;
2022/01/30 00:13:38;;;;;;;25.27;4.93;;;;;;;;;;4937886;28;20026;-78
2022/01/30 00:26:40;;;;;;;38.65;5.55;;;;;;;;;;4903555;29;20097;-77
2022/01/30 00:29:33;;;;;;;23.00;4.00;;;;;;;;;;4894785;29;20116;-79
2022/01/30 00:32:37;;;;;;;36.88;5.95;;;;;;;;;;4903600;29;20118;-79
2022/01/30 00:38:43;;;;;;;36.55;5.45;;;;;;;;;;4904108;29;20056;-76
2022/01/30 00:41:40;;;;;;;34.20;5.60;;;;;;;;;;4958981;29;20039;-78
2022/01/30 00:44:08;;;;;;;30.98;5.60;;;;;;;;;;4979177;28;20034;-78
2022/01/30 00:46:38;;;;;;;35.65;5.82;;;;;;;;;;4997342;28;20086;-78
2022/01/30 00:49:09;;;;;;;27.27;5.50;;;;;;;;;;4944644;28;20712;-78
2022/01/30 00:51:45;;;;;;;28.08;5.65;;;;;;;;;;4960595;28;20051;-78
2022/01/30 00:54:13;;;;;;;26.65;5.35;;;;;;;;;;4957547;28;20059;-78
2022/01/30 00:56:48;;;;;;;39.80;5.95;;;;;;;;;;4958924;28;20040;-78
2022/01/30 00:59:32;;;;;;;30.52;5.35;;;;;;;;;;4960604;28;20028;-77
2022/01/30 01:02:02;;;;;;;27.70;5.32;;;;;;;;;;4944767;28;20051;-78
2022/01/30 01:04:34;;;;;;;37.55;5.93;;;;;;;;;;4944079;28;20039;-78
2022/01/30 01:07:24;;;;;;;29.95;5.30;;;;;;;;;;4927045;29;20024;-77
2022/01/30 01:10:39;;;;;;;;;;;;;;;;;;4941665;29;20056;-78
2022/01/30 01:20:59;;;;;;;36.80;5.15;;;;;;;;;;4951470;28;20055;-78
2022/01/30 01:25:04;;;;;;;34.85;5.47;;;;;;;;;;4954485;28;20035;-79
2022/01/30 01:27:36;;;;;;;32.35;5.72;;;;;;;;;;4929370;29;20035;-78
2022/01/30 01:30:14;;;;;;;36.90;5.68;;;;;;;;;;4944793;29;20068;-79
2022/01/30 01:32:45;;;;;;;35.35;5.35;;;;;;;;;;4943363;29;20036;-78
2022/01/30 01:35:22;;;;;;;27.38;5.47;;;;;;;;;;4944553;29;20024;-75
2022/01/30 01:37:55;;;;;;;31.15;5.35;;;;;;;;;;4929270;29;20032;-78
2022/01/30 01:40:54;;;;;;;33.85;5.63;;;;;;;;;;4982609;28;20031;-78
2022/01/30 01:43:36;;;;;;;35.20;5.65;;;;;;;;;;4967897;28;20020;-78
2022/01/30 01:50:04;;;;;;;28.35;5.20;;;;;;;;;;4999196;28;20089;-79
2022/01/30 01:52:54;;;;;;;36.37;5.80;;;;;;;;;;4982627;28;20054;-79
2022/01/30 01:55:44;;;;;;;31.60;5.60;;;;;;;;;;4982056;28;20274;-80
2022/01/30 01:58:14;;;;;;;29.10;6.00;;;;;;;;;;4956452;29;20016;-78
2022/01/30 02:00:41;;;;;;;39.58;6.25;;;;;;;;;;4943753;29;20059;-80
2022/01/30 02:03:09;;;;;;;35.10;6.13;;;;;;;;;;4965890;28;20043;-78
2022/01/30 02:05:46;;;;;;;36.83;6.22;;;;;;;;;;4965537;28;20058;-79
2022/01/30 02:08:50;;;;;;;38.20;5.63;;;;;;;;;;4968427;28;20043;-78
2022/01/30 02:11:31;;;;;;;37.72;6.45;;;;;;;;;;4952279;28;20032;-79
2022/01/30 02:14:28;;;;;;;33.15;5.75;;;;;;;;;;4979258;28;20095;-79
2022/01/30 02:26:46;;;;;;;40.22;7.00;;;;;;;;;;4962654;28;20034;-77
2022/01/30 02:29:13;;;;;;;30.38;6.50;;;;;;;;;;4964529;28;20035;-78
2022/01/30 02:31:48;;;;;;;36.30;5.63;;;;;;;;;;4957483;28;20047;-79
2022/01/30 02:34:32;;;;;;;34.40;6.28;;;;;;;;;;4948002;28;20032;-78
2022/01/30 02:37:00;;;;;;;40.92;6.15;;;;;;;;;;4962629;28;20154;-78
2022/01/30 02:39:54;;;;;;;44.40;6.53;;;;;;;;;;4962337;28;20034;-79
2022/01/30 02:42:28;;;;;;;43.60;6.40;;;;;;;;;;4957001;28;20270;-77
2022/01/30 02:45:11;;;;;;;35.97;6.22;;;;;;;;;;4962664;28;20044;-77
2022/01/30 02:54:11;;;;;;;50.25;6.43;;;;;;;;;;4981805;28;20055;-79
2022/01/30 02:56:51;;;;;;;44.55;6.88;;;;;;;;;;4980609;28;20051;-78
2022/01/30 03:03:43;;;;;;;42.25;6.53;;;;;;;;;;4929012;29;20110;-79
2022/01/30 03:06:36;;;;;;;45.78;7.10;;;;;;;;;;4928553;29;20028;-77
2022/01/30 03:09:07;;;;;;;35.42;6.10;;;;;;;;;;4942351;29;20077;-77
2022/01/30 03:11:39;;;;;;;40.28;6.68;;;;;;;;;;4942373;29;20040;-79
2022/01/30 03:20:49;;;;;;;32.80;6.30;;;;;;;;;;4990579;28;20029;-79
2022/01/30 03:23:39;;;;;;;33.97;6.47;;;;;;;;;;5020819;28;20026;-78
2022/01/30 03:26:15;;;;;;;38.90;7.03;;;;;;;;;;5004897;28;20050;-77
2022/01/30 03:29:05;;;;;;;41.03;7.30;;;;;;;;;;5020553;28;20053;-78
2022/01/30 03:31:54;;;;;;;47.30;7.10;;;;;;;;;;5020451;28;20073;-78
2022/01/30 03:34:36;;;;;;;38.97;6.75;;;;;;;;;;5020307;28;20022;-77
2022/01/30 03:37:13;;;;;;;46.33;6.85;;;;;;;;;;5020447;28;20022;-77
2022/01/30 03:39:59;;;;;;;46.28;6.35;;;;;;;;;;4994724;28;20022;-77
2022/01/30 03:42:33;;;;;;;37.58;6.25;;;;;;;;;;5004913;28;20042;-76
2022/01/30 03:45:27;;;;;;;;;;;;;;;;;;;;;
2022/01/30 03:48:05;;;;;;;39.17;6.68;;;;;;;;;;5016683;28;20030;-76
2022/01/30 03:50:35;;;;;;;33.55;5.75;;;;;;;;;;5020026;28;20038;-77
2022/01/30 03:53:08;;;;;;;33.55;6.28;;;;;;;;;;5020350;28;20019;-78
2022/01/30 03:55:40;;;;;;;42.05;5.93;;;;;;;;;;5020488;28;20026;-78
2022/01/30 03:58:30;;;;;;;38.83;6.25;;;;;;;;;;5003082;28;20014;-78
2022/01/30 04:01:22;;;;;;;36.30;6.20;;;;;;;;;;5020265;28;20082;-78
2022/01/30 04:03:51;;;;;;;35.28;5.97;;;;;;;;;;4983890;28;20046;-76
2022/01/30 04:06:21;;;;;;;34.92;6.20;;;;;;;;;;5016097;28;20044;-78
2022/01/30 04:08:56;;;;;;;40.08;6.30;;;;;;;;;;5019926;28;20076;-78
2022/01/30 04:19:04;;;;;;;38.28;6.45;;;;;;;;;;4944192;28;20049;-79
2022/01/30 04:21:42;;;;;;;32.95;6.25;;;;;;;;;;4999317;28;20058;-79
2022/01/30 04:24:17;;;;;;;30.70;5.60;;;;;;;;;;5000411;28;20039;-78
2022/01/30 04:26:56;;;;;;;36.92;6.07;;;;;;;;;;4985087;28;20018;-78
2022/01/30 04:29:43;;;;;;;35.90;6.05;;;;;;;;;;4999651;28;20030;-78
2022/01/30 04:32:42;;;;;;;36.38;5.70;;;;;;;;;;5000255;28;20022;-79
2022/01/30 04:35:29;;;;;;;39.60;6.43;;;;;;;;;;4951283;28;20031;-76
2022/01/30 04:53:37;;;;;;;32.30;5.30;;;;;;;;;;4999885;28;20023;-78
2022/01/30 05:05:52;;;;;;;34.60;5.85;;;;;;;;;;4989572;28;20103;-78
2022/01/30 05:08:24;;;;;;;36.63;5.95;;;;;;;;;;4999853;28;20044;-78
2022/01/30 05:10:55;;;;;;;38.90;5.90;;;;;;;;;;4974244;28;20046;-78
2022/01/30 05:17:43;;;;;;;39.70;6.15;;;;;;;;;;4960323;28;20074;-79
2022/01/30 05:20:24;;;;;;;34.53;5.18;;;;;;;;;;4894207;29;20029;-78
2022/01/30 05:22:51;;;;;;;34.47;5.82;;;;;;;;;;4922504;29;20029;-77
2022/01/30 05:25:24;;;;;;;38.83;5.40;;;;;;;;;;4865916;29;20072;-77
2022/01/30 05:35:08;;;;;;;26.85;5.20;;;;;;;;;;4866335;29;20116;-79
2022/01/30 05:37:41;;;;;;;37.80;5.30;;;;;;;;;;4851471;29;20045;-76
2022/01/30 05:40:32;;;;;;;22.10;4.95;;;;;;;;;;4866267;29;20034;-78
2022/01/30 05:43:23;;;;;;;32.47;5.45;;;;;;;;;;4866232;29;20034;-78
2022/01/30 05:46:15;;;;;;;27.70;5.00;;;;;;;;;;4866351;29;20022;-77
2022/01/30 05:48:50;;;;;;;32.08;5.28;;;;;;;;;;4850952;29;20041;-78
2022/01/30 05:51:54;;;;;;;35.07;4.90;;;;;;;;;;4865075;29;20042;-78
2022/01/30 05:54:41;;;;;;;29.60;4.72;;;;;;;;;;4866024;29;20049;-78
2022/01/30 05:57:09;;;;;;;34.95;4.93;;;;;;;;;;4898605;29;20039;-77
2022/01/30 05:59:41;;;;;;;34.20;4.78;;;;;;;;;;4910264;29;20036;-77
2022/01/30 06:02:25;;;;;;;31.58;5.18;;;;;;;;;;4910319;29;20033;-78
2022/01/30 06:04:53;;;;;;;28.48;5.40;;;;;;;;;;4922895;29;20057;-79
2022/01/30 06:07:34;;;;;;;34.80;5.30;;;;;;;;;;4888455;29;20063;-80
2022/01/30 06:10:09;;;;;;;30.90;4.88;;;;;;;;;;4901975;29;20033;-80
2022/01/30 06:13:20;;;;;;;32.38;4.68;;;;;;;;;;4908172;29;20073;-79
2022/01/30 06:16:21;;;;;;;28.45;4.63;;;;;;;;;;4905354;29;20069;-79
2022/01/30 06:18:51;;;;;;;22.17;4.50;;;;;;;;;;4904359;29;20029;-78
2022/01/30 06:21:19;;;;;;;38.25;5.30;;;;;;;;;;4890325;29;20049;-77
2022/01/30 06:23:51;;;;;;;29.88;4.90;;;;;;;;;;4904825;29;20048;-79
2022/01/30 06:26:21;;;;;;;32.35;5.47;;;;;;;;;;4904187;29;20063;-80
2022/01/30 06:28:51;;;;;;;27.70;5.00;;;;;;;;;;4894329;29;20031;-79
2022/01/30 06:31:22;;;;;;;30.70;4.53;;;;;;;;;;4871382;29;20042;-79
2022/01/30 06:33:50;;;;;;;34.42;5.20;;;;;;;;;;4871944;29;20045;-78
2022/01/30 06:36:18;;;;;;;29.50;5.40;;;;;;;;;;4871744;29;20033;-78
2022/01/30 06:45:42;;;;;;;39.92;5.97;;;;;;;;;;4898171;29;20182;-78
2022/01/30 06:48:09;;;;;;;41.10;5.43;;;;;;;;;;4912061;29;20056;-78
2022/01/30 06:51:18;;;;;;;31.25;5.57;;;;;;;;;;4904605;29;20094;-78
2022/01/30 06:53:56;;;;;;;41.75;5.88;;;;;;;;;;4907998;29;20080;-78
2022/01/30 06:56:25;;;;;;;34.42;5.55;;;;;;;;;;4913255;29;20048;-78
2022/01/30 06:58:56;;;;;;;32.53;5.88;;;;;;;;;;4908335;29;20130;-80
2022/01/30 07:01:26;;;;;;;35.25;5.60;;;;;;;;;;4940944;29;20035;-79
2022/01/30 07:03:53;;;;;;;32.15;6.00;;;;;;;;;;4980731;28;20095;-80
2022/01/30 07:06:19;;;;;;;36.22;5.43;;;;;;;;;;4964876;28;20051;-79
2022/01/30 07:08:46;;;;;;;50.90;6.25;;;;;;;;;;4986622;28;20085;-80
2022/01/30 07:11:14;;;;;;;33.85;5.80;;;;;;;;;;5004070;28;20046;-77
2022/01/30 07:13:42;;;;;;;26.38;5.43;;;;;;;;;;5003284;28;20046;-79
2022/01/30 07:16:13;;;;;;;33.63;5.72;;;;;;;;;;5004455;28;20034;-79
2022/01/30 07:18:41;;;;;;;30.45;5.00;;;;;;;;;;5004874;28;20022;-77
2022/01/30 07:21:13;;;;;;;41.75;6.30;;;;;;;;;;5004132;28;20053;-77
2022/01/30 07:23:40;;;;;;;37.53;5.23;;;;;;;;;;5020454;28;20022;-80
2022/01/30 07:26:07;;;;;;;32.88;5.28;;;;;;;;;;5003389;28;20026;-77
2022/01/30 07:28:35;;;;;;;35.67;5.65;;;;;;;;;;5003624;28;20046;-78
2022/01/30 07:31:01;;;;;;;33.40;5.40;;;;;;;;;;5019364;28;20074;-76
2022/01/30 07:33:35;;;;;;;30.70;5.30;;;;;;;;;;5003586;28;20026;-78
2022/01/30 07:36:02;;;;;;;32.55;5.35;;;;;;;;;;5003398;28;20082;-77
2022/01/30 07:38:29;;;;;;;36.47;5.38;;;;;;;;;;5002200;28;20050;-77
2022/01/30 07:40:55;;;;;;;35.88;5.50;;;;;;;;;;5002606;28;20023;-76
2022/01/30 07:43:23;;;;;;;33.40;5.55;;;;;;;;;;5001657;28;20042;-77
2022/01/30 07:45:51;;;;;;;36.92;5.88;;;;;;;;;;5001957;28;20042;-77
2022/01/30 07:48:19;;;;;;;35.85;5.85;;;;;;;;;;5001554;28;20105;-77
2022/01/30 07:50:45;;;;;;;33.70;5.40;;;;;;;;;;5018200;28;20110;-77
2022/01/30 07:53:25;;;;;;;29.20;4.82;;;;;;;;;;5002744;28;20069;-76
2022/01/30 07:55:57;;;;;;;36.45;5.65;;;;;;;;;;4986817;28;20025;-77
2022/01/30 07:58:23;;;;;;;37.47;5.72;;;;;;;;;;5003186;28;20046;-78
2022/01/30 08:00:57;;;;;;;25.50;4.35;;;;;;;;;;5003217;28;20060;-78
2022/01/30 08:03:23;;;;;;;43.67;5.45;;;;;;;;;;4996865;28;20038;-78
2022/01/30 08:05:54;;;;;;;31.23;5.97;;;;;;;;;;4997267;28;20069;-78
2022/01/30 08:08:37;;;;;;;35.85;5.20;;;;;;;;;;5005086;28;20074;-77
2022/01/30 08:11:05;;;;;;;24.45;4.65;;;;;;;;;;5001645;28;20082;-78
2022/01/30 08:13:32;;;;;;;32.17;5.30;;;;;;;;;;5019144;28;20050;-77
2022/01/30 08:16:00;;;;;;;33.90;5.07;;;;;;;;;;5000592;28;20042;-77
2022/01/30 08:18:26;;;;;;;38.13;5.80;;;;;;;;;;5016116;28;20022;-78
2022/01/30 08:20:54;;;;;;;32.25;5.10;;;;;;;;;;4999798;28;20046;-78
2022/01/30 08:24:19;;;;;;;36.45;4.95;;;;;;;;;;5008554;28;20062;-77
2022/01/30 08:26:46;;;;;;;31.13;4.80;;;;;;;;;;5000584;28;20034;-77
2022/01/30 08:29:12;;;;;;;30.60;5.50;;;;;;;;;;5001184;28;20019;-77
2022/01/30 08:31:39;;;;;;;31.23;4.88;;;;;;;;;;5000833;28;20061;-78
2022/01/30 08:34:08;;;;;;;30.33;5.13;;;;;;;;;;5001853;28;20031;-77
2022/01/30 08:36:35;;;;;;;28.63;4.70;;;;;;;;;;5002439;28;20057;-77
2022/01/30 08:39:05;;;;;;;31.80;4.78;;;;;;;;;;5018288;28;20077;-77
2022/01/30 08:41:58;;;;;;;29.55;5.72;;;;;;;;;;5018154;28;20045;-77
2022/01/30 08:44:30;;;;;;;34.85;4.70;;;;;;;;;;5018269;28;20057;-76
2022/01/30 08:47:05;;;;;;;30.50;4.55;;;;;;;;;;5018690;28;20037;-77
2022/01/30 08:49:44;;;;;;;29.90;5.00;;;;;;;;;;5018913;28;20039;-78
2022/01/30 08:52:37;;;;;;;29.05;4.90;;;;;;;;;;5019080;28;20103;-78
2022/01/30 08:55:05;;;;;;;39.25;5.68;;;;;;;;;;5018849;28;20027;-76
2022/01/30 08:57:32;;;;;;;28.80;5.18;;;;;;;;;;5001960;28;20086;-76
2022/01/30 09:00:00;;;;;;;27.52;4.72;;;;;;;;;;5018957;28;20033;-76
2022/01/30 09:02:29;;;;;;;35.95;5.28;;;;;;;;;;5001739;28;20061;-76
2022/01/30 09:05:04;;;;;;;32.40;5.28;;;;;;;;;;5015544;28;20029;-77
2022/01/30 09:08:07;;;;;;;28.90;5.00;;;;;;;;;;5018604;28;20082;-77
2022/01/30 09:10:54;;;;;;;40.80;5.18;;;;;;;;;;4978497;28;20047;-77
2022/01/30 09:13:32;;;;;;;31.25;5.40;;;;;;;;;;4979235;28;20040;-76
2022/01/30 09:16:20;;;;;;;26.55;4.90;;;;;;;;;;4975898;28;20042;-76
2022/01/30 09:19:03;;;;;;;35.38;6.03;;;;;;;;;;4932159;28;20128;-77
2022/01/30 09:21:46;;;;;;;32.97;5.68;;;;;;;;;;4920265;28;20031;-77
2022/01/30 09:24:25;;;;;;;26.30;5.88;;;;;;;;;;4935041;29;20043;-78
2022/01/30 09:27:19;;;;;;;32.47;6.13;;;;;;;;;;4917714;29;20111;-78
2022/01/30 09:30:11;;;;;;;36.28;5.30;;;;;;;;;;4977381;28;20079;-76
2022/01/30 09:32:47;;;;;;;36.10;5.95;;;;;;;;;;4975919;28;20120;-77
2022/01/30 09:35:17;;;;;;;34.28;5.45;;;;;;;;;;4946627;29;20055;-79
2022/01/30 09:37:59;;;;;;;39.88;6.00;;;;;;;;;;4964690;28;20090;-77
2022/01/30 09:40:56;;;;;;;34.85;6.00;;;;;;;;;;4981498;28;20026;-78
2022/01/30 09:43:35;;;;;;;37.38;6.18;;;;;;;;;;5022730;28;20030;-77
2022/01/30 09:46:04;;;;;;;32.40;5.80;;;;;;;;;;5022542;28;20053;-78
2022/01/30 09:48:53;;;;;;;38.22;6.38;;;;;;;;;;5022600;28;20055;-78
2022/01/30 09:52:19;;;;;;;29.60;5.65;;;;;;;;;;4988765;28;20034;-78
2022/01/30 09:58:46;;;;;;;;;;;;;;;;;;;;;
2022/01/30 10:02:05;;;;;;;;;;;;;;;;;;;;;
2022/01/30 10:07:51;;;;;;;38.03;6.60;;;;;;;;;;5006666;23;20038;-78
2022/01/30 10:10:23;;;;;;;39.30;6.68;;;;;;;;;;4966761;28;20855;-79
2022/01/30 10:13:19;;;;;;;41.05;5.80;;;;;;;;;;4966446;28;20034;-78
2022/01/30 10:15:56;;;;;;;37.58;6.15;;;;;;;;;;4963522;28;20031;-78
2022/01/30 10:19:27;;;;;;;37.65;6.35;;;;;;;;;;4894530;29;20032;-79
2022/01/30 10:22:44;;;;;;;42.67;6.38;;;;;;;;;;4913328;29;20059;-81
2022/01/30 10:26:17;;;;;;;;;;;;;;;;;;;;;
2022/01/30 10:29:00;;;;;;;36.35;6.22;;;;;;;;;;4924442;29;20056;-80
2022/01/30 10:32:06;;;;;;;43.22;6.30;;;;;;;;;;4910410;29;20048;-79
2022/01/30 10:35:30;;;;;;;36.40;6.45;;;;;;;;;;4868717;29;20055;-76
2022/01/30 10:41:31;;;;;;;42.85;6.88;;;;;;;;;;4868079;29;20032;-78
2022/01/30 10:44:47;;;;;;;;;;;;;;;;;;;;;
2022/01/30 10:50:55;;;;;;;39.00;6.45;;;;;;;;;;4813529;29;20039;-80
2022/01/30 10:53:58;;;;;;;38.97;6.97;;;;;;;;;;4813801;29;20040;-81
2022/01/30 10:56:29;;;;;;;47.08;7.00;;;;;;;;;;4856597;29;20111;-83
2022/01/30 11:01:41;;;;;;;39.67;7.45;;;;;;;;;;4941156;28;20083;-80
2022/01/30 11:04:35;;;;;;;43.40;7.25;;;;;;;;;;4966214;28;20023;-86
2022/01/30 11:29:21;;;;;;;38.45;7.28;;;;;;;;;;2350915;23;20041;-80
2022/01/30 11:31:49;;;;;;;36.63;7.40;;;;;;;;;;4996246;28;20058;-83
2022/01/30 11:34:15;;;;;;;43.70;7.07;;;;;;;;;;5019178;28;20058;-79
2022/01/30 11:36:43;;;;;;;39.70;7.72;;;;;;;;;;5001832;28;20114;-82
2022/01/30 11:39:13;;;;;;;42.90;7.38;;;;;;;;;;4996431;28;20027;-80
2022/01/30 11:41:42;;;;;;;37.05;7.63;;;;;;;;;;5018751;28;20054;-82
2022/01/30 11:44:25;;;;;;;54.25;7.70;;;;;;;;;;5019135;28;20026;-80
2022/01/30 11:47:07;;;;;;;48.72;8.00;;;;;;;;;;5018581;28;20086;-81
2022/01/30 11:49:42;;;;;;;37.90;6.32;;;;;;;;;;5017335;28;20039;-83
2022/01/30 11:52:10;;;;;;;43.15;8.02;;;;;;;;;;5013517;28;20033;-82
2022/01/30 11:54:51;;;;;;;44.72;7.15;;;;;;;;;;5001633;28;20053;-82
2022/01/30 11:57:24;;;;;;;48.65;8.10;;;;;;;;;;5011577;28;20049;-79
2022/01/30 12:03:23;;;;;;;32.38;6.60;;;;;;;;;;4999241;28;20098;-83
2022/01/30 12:05:49;;;;;;;;;;;;;;;;;;4995471;28;20094;-81
2022/01/30 12:08:35;;;;;;;42.97;7.32;;;;;;;;;;5017282;28;19898;-80
2022/01/30 12:11:09;;;;;;;40.70;7.55;;;;;;;;;;5018317;28;20034;-80
2022/01/30 12:13:46;;;;;;;35.85;6.78;;;;;;;;;;5000854;28;20026;-83
2022/01/30 12:16:46;;;;;;;39.55;6.82;;;;;;;;;;5019523;28;20037;-81
2022/01/30 12:19:54;;;;;;;43.10;7.43;;;;;;;;;;5020017;28;20032;-78
2022/01/30 12:22:29;;;;;;;40.00;7.40;;;;;;;;;;4980411;28;20049;-80
2022/01/30 12:25:14;;;;;;;47.08;7.55;;;;;;;;;;5012072;28;20049;-80
2022/01/30 12:27:57;;;;;;;51.40;7.40;;;;;;;;;;4999483;28;20011;-79
2022/01/30 12:30:34;;;;;;;32.60;7.22;;;;;;;;;;4983114;28;20074;-78
2022/01/30 12:33:34;;;;;;;38.15;7.30;;;;;;;;;;4967447;28;20026;-79
2022/01/30 12:36:35;;;;;;;41.53;7.32;;;;;;;;;;4998700;28;20037;-79
2022/01/30 12:43:19;;;;;;;;;;;;;;;;;;;;;
2022/01/30 12:47:10;;;;;;;43.85;7.50;;;;;;;;;;4967680;28;20077;-79
2022/01/30 12:53:01;;;;;;;39.72;6.82;;;;;;;;;;4960496;28;20048;-78
2022/01/30 12:55:54;;;;;;;36.70;7.00;;;;;;;;;;4948344;29;20034;-79
2022/01/30 12:59:35;;;;;;;;;;;;;;;;;;;;;
2022/01/30 13:02:58;;;;;;;;;;;;;;;;;;;;;
2022/01/30 13:13:05;;;;;;;;;;;;;;;;;;;;;
2022/01/30 13:15:55;;;;;;;43.80;7.45;;;;;;;;;;4944890;29;20040;-80
2022/01/30 13:18:23;;;;;;;40.13;7.35;;;;;;;;;;4944878;29;20043;-80
2022/01/30 13:20:58;;;;;;;42.63;7.00;;;;;;;;;;4945055;29;20028;-80
2022/01/30 13:23:47;;;;;;;46.45;7.63;;;;;;;;;;4918133;29;20043;-79
2022/01/30 13:26:35;;;;;;;43.75;7.43;;;;;;;;;;4981484;28;20026;-79
2022/01/30 13:29:43;;;;;;;37.65;6.47;;;;;;;;;;5006970;28;20097;-80
2022/01/30 13:32:23;;;;;;;39.13;7.45;;;;;;;;;;5022554;28;20030;-80
2022/01/30 14:02:40;;;;;;;39.10;7.10;;;;;;;;;;4925460;29;20061;-81
2022/01/30 14:05:44;;;;;;;47.67;9.80;;;;;;;;;;4923079;29;20041;-80
2022/01/30 14:08:15;;;;;;;49.30;7.75;;;;;;;;;;4972396;28;20106;-78
2022/01/30 14:10:45;;;;;;;45.22;8.13;;;;;;;;;;5022156;28;20043;-78
2022/01/30 14:13:23;;;;;;;47.17;7.38;;;;;;;;;;5021951;28;20026;-78
2022/01/30 14:16:33;;;;;;;;;;;;;;;;;;;;;
2022/01/30 14:25:43;;;;;;;40.75;7.75;;;;;;;;;;4933399;28;20035;-80
2022/01/30 14:28:19;;;;;;;48.28;7.60;;;;;;;;;;5004740;28;20030;-79
2022/01/30 14:31:01;;;;;;;38.85;7.53;;;;;;;;;;5008123;28;20037;-79
2022/01/30 14:33:32;;;;;;;43.33;6.88;;;;;;;;;;5001617;28;20058;-78
2022/01/30 14:36:06;;;;;;;41.92;7.18;;;;;;;;;;4946277;28;20031;-80
2022/01/30 14:38:36;;;;;;;40.13;7.53;;;;;;;;;;4944593;29;20059;-79
2022/01/30 14:41:10;;;;;;;47.05;8.05;;;;;;;;;;4908025;29;20048;-77
2022/01/30 14:43:39;;;;;;;42.10;6.78;;;;;;;;;;4892328;29;20107;-77
2022/01/30 14:46:07;;;;;;;39.80;6.32;;;;;;;;;;4906037;29;20036;-78
2022/01/30 14:48:34;;;;;;;43.95;6.90;;;;;;;;;;4905717;29;20045;-78
2022/01/30 14:51:02;;;;;;;40.33;7.38;;;;;;;;;;4905959;29;20069;-79
2022/01/30 14:53:38;;;;;;;40.00;7.35;;;;;;;;;;4908194;29;20048;-78
2022/01/30 14:56:24;;;;;;;;;;;;;;;;;;;;;
2022/01/30 14:58:55;;;;;;;31.55;7.07;;;;;;;;;;4924016;29;20037;-77
2022/01/30 15:01:21;;;;;;;45.38;7.63;;;;;;;;;;4892850;29;20033;-77
2022/01/30 15:03:52;;;;;;;42.22;7.13;;;;;;;;;;4891283;29;20032;-79
2022/01/30 15:06:27;;;;;;;42.70;7.10;;;;;;;;;;4907519;29;20045;-80
2022/01/30 15:09:03;;;;;;;41.85;7.93;;;;;;;;;;4922757;29;20065;-79
2022/01/30 15:11:30;;;;;;;38.95;7.68;;;;;;;;;;4918845;28;20043;-79
2022/01/30 15:17:38;;;;;;;32.83;8.88;;;;;;;;;;4885732;29;20082;-78
2022/01/30 15:20:13;;;;;;;32.90;6.90;;;;;;;;;;4870581;29;20060;-80
2022/01/30 15:29:43;;;;;;;37.92;7.47;;;;;;;;;;4886043;29;20950;-79
2022/01/30 15:32:14;;;;;;;44.97;7.47;;;;;;;;;;4886504;29;20032;-80
2022/01/30 15:34:45;;;;;;;35.05;7.93;;;;;;;;;;4866782;29;20042;-80
2022/01/30 15:37:30;;;;;;;42.22;7.82;;;;;;;;;;4867525;29;20054;-80
2022/01/30 15:41:04;;;;;;;54.13;7.90;;;;;;;;;;4867633;29;20075;-79
2022/01/30 15:44:05;;;;;;;42.42;7.10;;;;;;;;;;4867413;29;20036;-79
2022/01/30 15:50:06;;;;;;;39.53;7.45;;;;;;;;;;4884705;29;20028;-79
2022/01/30 15:52:36;;;;;;;34.35;6.88;;;;;;;;;;4910444;28;20036;-78
2022/01/30 15:55:41;;;;;;;;;;;;;;;;;;;;;
2022/01/30 15:58:38;;;;;;;48.60;7.60;;;;;;;;;;4912707;29;20083;-78
2022/01/30 16:03:58;;;;;;;48.65;7.63;;;;;;;;;;4970716;29;20373;-82
2022/01/30 16:06:28;;;;;;;43.88;7.63;;;;;;;;;;4980616;28;20059;-79
2022/01/30 16:09:07;;;;;;;41.22;7.43;;;;;;;;;;4949411;28;20023;-79
2022/01/30 16:17:02;;;;;;;39.75;7.00;;;;;;;;;;4980788;28;20023;-77
2022/01/30 16:19:32;;;;;;;45.08;6.85;;;;;;;;;;4964877;28;20066;-78
2022/01/30 16:22:16;;;;;;;41.80;7.75;;;;;;;;;;4980399;28;20028;-79
2022/01/30 16:27:56;;;;;;;36.25;7.25;;;;;;;;;;4981178;28;20023;-78
2022/01/30 16:31:03;;;;;;;35.85;6.88;;;;;;;;;;4981140;28;20084;-79
2022/01/30 16:33:51;;;;;;;40.15;6.72;;;;;;;;;;4980682;28;20027;-76
2022/01/30 16:39:12;;;;;;;43.58;7.47;;;;;;;;;;4980199;28;20022;-77
2022/01/30 16:41:47;;;;;;;44.58;6.85;;;;;;;;;;4979046;28;20035;-78
2022/01/30 16:44:37;;;;;;;41.90;7.13;;;;;;;;;;4978511;29;20024;-78
2022/01/30 16:47:43;;;;;;;42.97;6.85;;;;;;;;;;4946631;29;20071;-76
2022/01/30 16:50:12;;;;;;;36.63;6.57;;;;;;;;;;4975566;29;20047;-77
2022/01/30 16:53:12;;;;;;;;;;;;;;;;;;;;;
2022/01/30 16:56:27;;;;;;;46.88;8.20;;;;;;;;;;4967778;28;20050;-78
2022/01/30 16:59:17;;;;;;;34.63;7.20;;;;;;;;;;4978011;28;20079;-78
2022/01/30 17:02:19;;;;;;;42.65;6.47;;;;;;;;;;4979456;28;20043;-78
2022/01/30 17:04:50;;;;;;;39.47;7.60;;;;;;;;;;4977838;28;20066;-76
2022/01/30 17:07:21;;;;;;;41.47;6.68;;;;;;;;;;4977909;28;20111;-78
2022/01/30 17:09:49;;;;;;;43.88;7.15;;;;;;;;;;4960878;29;20059;-76
2022/01/30 17:12:23;;;;;;;36.08;6.70;;;;;;;;;;4961156;29;20044;-76
2022/01/30 17:14:53;;;;;;;34.67;6.93;;;;;;;;;;4962454;29;20091;-76
2022/01/30 17:17:26;;;;;;;47.42;7.03;;;;;;;;;;4977639;28;20035;-76
2022/01/30 17:19:58;;;;;;;46.90;7.88;;;;;;;;;;4962194;29;20098;-77
2022/01/30 17:22:50;;;;;;;62.80;9.52;;;;;;;;;;4919741;29;20071;-80
2022/01/30 17:25:21;;;;;;;49.95;7.72;;;;;;;;;;4920655;29;20049;-78
2022/01/30 17:27:57;;;;;;;38.58;7.25;;;;;;;;;;4906487;29;20052;-79
2022/01/30 17:30:27;;;;;;;31.23;6.82;;;;;;;;;;4920742;29;20052;-78
2022/01/30 17:36:30;;;;;;;39.00;6.70;;;;;;;;;;4883848;29;20135;-79
2022/01/30 17:39:04;;;;;;;42.58;7.70;;;;;;;;;;4884298;29;20033;-79
2022/01/30 17:41:50;;;;;;;39.97;7.18;;;;;;;;;;4853358;29;20032;-79
2022/01/30 17:44:54;;;;;;;42.92;7.57;;;;;;;;;;4854196;29;20052;-79
2022/01/30 17:47:29;;;;;;;44.00;11.70;;;;;;;;;;4936913;29;20065;-79
2022/01/30 17:50:07;;;;;;;57.40;16.20;;;;;;;;;;4944480;29;20064;-78
2022/01/30 17:52:36;;;;;;;51.10;10.48;;;;;;;;;;4956852;29;20035;-77
2022/01/30 17:55:14;;;;;;;45.88;10.30;;;;;;;;;;4950947;29;20059;-78
2022/01/30 17:57:44;;;;;;;46.00;9.73;;;;;;;;;;4947055;29;20059;-78
2022/01/30 18:00:17;;;;;;;;;;;;;;;;;;4946416;29;20064;-78
2022/01/30 18:02:56;;;;;;;43.80;9.65;;;;;;;;;;4960223;29;19911;-78
2022/01/30 18:05:44;;;;;;;50.03;10.83;;;;;;;;;;4941605;29;20036;-78
2022/01/30 18:09:07;;;;;;;55.85;16.08;;;;;;;;;;4923328;29;20071;-78
2022/01/30 18:12:02;;;;;;;40.97;9.95;;;;;;;;;;4910962;29;20066;-79
2022/01/30 18:15:12;;;;;;;46.92;12.95;;;;;;;;;;4950285;28;20026;-78
2022/01/30 18:17:56;;;;;;;48.00;10.18;;;;;;;;;;4963303;28;20035;-78
2022/01/30 18:20:40;;;;;;;56.40;11.82;;;;;;;;;;4933219;28;20040;-79
2022/01/30 18:23:23;;;;;;;44.95;10.90;;;;;;;;;;4961622;28;20024;-79
2022/01/30 18:26:44;;;;;;;53.28;12.88;;;;;;;;;;4975271;29;20054;-78
2022/01/30 18:29:19;;;;;;;49.28;9.07;;;;;;;;;;4960898;29;20088;-79
2022/01/30 18:31:56;;;;;;;54.45;9.60;;;;;;;;;;4963700;28;20079;-78
2022/01/30 18:34:39;;;;;;;45.67;9.20;;;;;;;;;;4981949;28;20020;-79
2022/01/30 18:37:28;;;;;;;60.30;11.95;;;;;;;;;;4955619;28;20027;-79
2022/01/30 18:40:56;;;;;;;45.00;8.52;;;;;;;;;;4981501;28;20043;-79
2022/01/30 18:43:32;;;;;;;59.25;11.93;;;;;;;;;;4965291;28;20055;-78
2022/01/30 18:46:09;;;;;;;46.50;11.15;;;;;;;;;;4950432;28;20046;-79
2022/01/30 18:48:48;;;;;;;65.68;17.95;;;;;;;;;;4981062;28;20047;-78
2022/01/30 18:51:26;;;;;;;50.88;14.95;;;;;;;;;;4981172;28;20063;-80
2022/01/30 18:54:02;;;;;;;56.17;14.90;;;;;;;;;;4981556;28;20015;-80
2022/01/30 18:56:41;;;;;;;48.47;13.85;;;;;;;;;;4981775;28;20040;-79
2022/01/30 18:59:32;;;;;;;41.75;12.70;;;;;;;;;;4949894;28;20016;-79
2022/01/30 19:02:37;;;;;;;50.03;10.98;;;;;;;;;;4981358;28;20043;-80
2022/01/30 19:05:55;;;;;;;49.92;10.60;;;;;;;;;;4981643;28;20082;-80
2022/01/30 19:09:15;;;;;;;53.65;12.38;;;;;;;;;;4961620;29;20032;-79
2022/01/30 19:12:05;;;;;;;42.50;10.90;;;;;;;;;;4961200;29;20072;-79
2022/01/30 19:15:12;;;;;;;44.80;12.00;;;;;;;;;;4961656;29;20070;-80
2022/01/30 19:17:48;;;;;;;51.25;10.45;;;;;;;;;;4940848;29;20016;-80
2022/01/30 19:24:35;;;;;;;37.88;8.57;;;;;;;;;;4942540;29;20047;-79
2022/01/30 19:30:23;;;;;;;43.25;8.52;;;;;;;;;;4904014;29;20045;-80
2022/01/30 19:33:09;;;;;;;40.75;9.63;;;;;;;;;;4873333;29;20033;-79
2022/01/30 19:35:51;;;;;;;45.47;8.73;;;;;;;;;;4904820;29;20073;-80
2022/01/30 19:38:55;;;;;;;46.75;10.20;;;;;;;;;;4904076;29;20029;-80
2022/01/30 19:41:59;;;;;;;49.13;9.15;;;;;;;;;;4904310;29;20037;-80
2022/01/30 19:45:09;;;;;;;37.58;8.85;;;;;;;;;;4890165;29;20064;-80
2022/01/30 19:48:33;;;;;;;53.25;9.68;;;;;;;;;;4947685;29;20055;-78
2022/01/30 19:57:37;;;;;;;37.70;9.75;;;;;;;;;;4942764;28;20046;-79
2022/01/30 20:00:48;;;;;;;40.55;8.93;;;;;;;;;;4966004;28;20051;-80
2022/01/30 20:04:06;;;;;;;44.35;9.40;;;;;;;;;;4965006;28;20062;-83
2022/01/30 20:10:19;;;;;;;36.40;8.30;;;;;;;;;;4960577;28;20062;-80
2022/01/30 20:13:24;;;;;;;40.28;8.75;;;;;;;;;;4957672;29;20051;-78
2022/01/30 20:16:37;;;;;;;38.08;8.40;;;;;;;;;;4917658;29;20051;-79
2022/01/30 20:19:50;;;;;;;49.70;8.70;;;;;;;;;;4922559;29;20048;-79